createdAt,value
2019-01-12T00:00:01.811Z,7.67
2019-01-12T00:02:29.052Z,7.69
2019-01-12T00:04:56.294Z,7.71
2019-01-12T00:07:23.552Z,7.59
2019-01-12T00:09:50.770Z,7.64
2019-01-12T00:12:18.363Z,7.70
2019-01-12T00:14:45.598Z,7.71
2019-01-12T00:17:12.990Z,7.65
2019-01-12T00:19:40.296Z,7.66
2019-01-12T00:22:07.528Z,7.72
2019-01-12T00:24:34.746Z,7.75
2019-01-12T00:27:02.006Z,7.85
2019-01-12T00:29:29.311Z,7.86
2019-01-12T00:31:56.503Z,7.86
2019-01-12T00:34:24.032Z,7.71
2019-01-12T00:36:51.257Z,7.74
2019-01-12T00:39:18.606Z,7.67
2019-01-12T00:41:46.074Z,7.68
2019-01-12T00:44:13.284Z,7.65
2019-01-12T00:46:40.727Z,7.70
2019-01-12T00:49:07.988Z,7.60
2019-01-12T00:51:35.334Z,7.65
2019-01-12T00:54:02.681Z,7.71
2019-01-12T00:56:29.915Z,7.76
2019-01-12T00:58:57.169Z,7.74
2019-01-12T01:01:24.763Z,7.66
2019-01-12T01:03:52.148Z,7.68
2019-01-12T01:06:19.388Z,7.79
2019-01-12T01:08:46.603Z,7.78
2019-01-12T01:11:13.831Z,7.76
2019-01-12T01:13:41.085Z,7.74
2019-01-12T01:16:08.334Z,7.80
2019-01-12T01:18:35.551Z,7.80
2019-01-12T01:21:02.905Z,7.68
2019-01-12T01:23:30.123Z,7.80
2019-01-12T01:25:57.378Z,7.69
2019-01-12T01:28:24.716Z,7.51
2019-01-12T01:30:52.112Z,7.59
2019-01-12T01:33:19.370Z,7.67
2019-01-12T01:35:46.588Z,7.67
2019-01-12T01:38:13.854Z,7.82
2019-01-12T01:40:41.055Z,7.75
2019-01-12T01:43:08.316Z,7.84
2019-01-12T01:45:35.827Z,7.85
2019-01-12T01:48:03.164Z,7.86
2019-01-12T01:50:30.718Z,7.84
2019-01-12T01:52:57.988Z,7.84
2019-01-12T01:55:26.525Z,7.81
2019-01-12T01:57:53.753Z,7.88
2019-01-12T02:00:21.072Z,7.85
2019-01-12T02:02:48.356Z,7.96
2019-01-12T02:05:15.856Z,7.97
2019-01-12T02:07:43.191Z,8.10
2019-01-12T02:10:14.074Z,8.12
2019-01-12T02:12:41.291Z,8.08
2019-01-12T02:15:09.755Z,8.15
2019-01-12T02:17:36.988Z,8.08
2019-01-12T02:20:04.980Z,8.10
2019-01-12T02:22:32.205Z,8.08
2019-01-12T02:25:00.987Z,8.11
2019-01-12T02:27:28.284Z,8.22
2019-01-12T02:29:55.518Z,8.14
2019-01-12T02:32:22.771Z,8.15
2019-01-12T02:34:52.174Z,8.19
2019-01-12T02:37:19.498Z,8.16
2019-01-12T02:39:46.796Z,8.18
2019-01-12T02:42:14.393Z,8.16
2019-01-12T02:44:41.610Z,8.19
2019-01-12T02:47:09.245Z,8.19
2019-01-12T02:49:36.610Z,8.23
2019-01-12T02:52:03.835Z,8.28
2019-01-12T02:54:31.076Z,8.24
2019-01-12T02:56:59.486Z,8.11
2019-01-12T02:59:26.874Z,8.18
2019-01-12T03:01:54.498Z,8.27
2019-01-12T03:04:21.820Z,8.26
2019-01-12T03:06:49.194Z,8.22
2019-01-12T03:09:17.579Z,8.12
2019-01-12T03:11:44.858Z,8.26
2019-01-12T03:14:12.148Z,8.37
2019-01-12T03:16:39.404Z,8.38
2019-01-12T03:19:06.623Z,8.30
2019-01-12T03:21:33.950Z,8.29
2019-01-12T03:24:01.186Z,8.31
2019-01-12T03:26:28.465Z,8.29
2019-01-12T03:28:55.673Z,8.22
2019-01-12T03:31:22.916Z,8.31
2019-01-12T03:33:50.293Z,8.31
2019-01-12T03:36:17.530Z,8.23
2019-01-12T03:38:45.047Z,8.26
2019-01-12T03:41:12.347Z,8.26
2019-01-12T03:43:39.961Z,8.28
2019-01-12T03:46:07.480Z,8.21
2019-01-12T03:48:34.691Z,8.21
2019-01-12T03:51:01.983Z,8.30
2019-01-12T03:53:29.202Z,8.27
2019-01-12T03:55:56.444Z,8.29
2019-01-12T03:58:23.799Z,8.25
2019-01-12T04:00:51.056Z,8.28
2019-01-12T04:03:18.286Z,8.31
2019-01-12T04:05:45.530Z,8.22
2019-01-12T04:08:12.802Z,8.15
2019-01-12T04:10:40.061Z,8.14
2019-01-12T04:13:07.287Z,8.00
2019-01-12T04:15:34.516Z,8.11
2019-01-12T04:18:01.774Z,8.07
2019-01-12T04:20:29.002Z,8.12
2019-01-12T04:22:56.473Z,8.08
2019-01-12T04:25:23.832Z,8.12
2019-01-12T04:27:53.308Z,8.13
2019-01-12T04:30:20.532Z,8.15
2019-01-12T04:32:47.829Z,8.10
2019-01-12T04:35:15.495Z,8.06
2019-01-12T04:37:42.728Z,8.07
2019-01-12T04:40:15.481Z,8.12
2019-01-12T04:42:42.710Z,8.16
2019-01-12T04:45:10.176Z,8.03
2019-01-12T04:47:37.568Z,8.05
2019-01-12T04:50:07.041Z,8.00
2019-01-12T04:52:34.326Z,7.98
2019-01-12T04:55:01.616Z,7.87
2019-01-12T04:57:29.119Z,8.01
2019-01-12T04:59:56.377Z,8.00
2019-01-12T05:02:24.094Z,8.11
2019-01-12T05:04:51.411Z,8.07
2019-01-12T05:07:18.720Z,8.05
2019-01-12T05:09:46.057Z,8.13
2019-01-12T05:12:13.565Z,8.04
2019-01-12T05:14:40.822Z,8.20
2019-01-12T05:17:08.081Z,8.20
2019-01-12T05:19:35.412Z,8.10
2019-01-12T05:22:02.649Z,8.07
2019-01-12T05:24:29.902Z,8.13
2019-01-12T05:26:57.108Z,8.05
2019-01-12T05:29:24.320Z,8.07
2019-01-12T05:31:52.527Z,8.08
2019-01-12T05:34:19.844Z,8.00
2019-01-12T05:36:47.201Z,8.02
2019-01-12T05:39:14.469Z,8.12
2019-01-12T05:41:41.670Z,8.02
2019-01-12T05:44:08.935Z,8.01
2019-01-12T05:46:36.145Z,7.96
2019-01-12T05:49:03.406Z,7.95
2019-01-12T05:51:30.725Z,7.96
2019-01-12T05:53:57.942Z,8.07
2019-01-12T05:56:25.188Z,8.09
2019-01-12T05:58:52.420Z,8.07
2019-01-12T06:01:19.668Z,8.06
2019-01-12T06:03:49.250Z,7.97
2019-01-12T06:06:16.583Z,8.03
2019-01-12T06:08:43.917Z,8.05
2019-01-12T06:11:11.139Z,8.08
2019-01-12T06:13:38.410Z,8.20
2019-01-12T06:16:05.648Z,8.20
2019-01-12T06:18:32.884Z,8.01
2019-01-12T06:21:00.135Z,7.98
2019-01-12T06:23:27.908Z,7.99
2019-01-12T06:25:55.121Z,8.10
2019-01-12T06:28:22.372Z,7.98
2019-01-12T06:30:49.624Z,8.02
2019-01-12T06:33:16.925Z,7.95
2019-01-12T06:35:45.855Z,8.13
2019-01-12T06:38:13.127Z,8.11
2019-01-12T06:40:40.414Z,8.03
2019-01-12T06:43:07.619Z,8.13
2019-01-12T06:45:34.831Z,8.13
2019-01-12T06:48:02.099Z,8.14
2019-01-12T06:50:29.380Z,8.26
2019-01-12T06:52:56.604Z,8.12
2019-01-12T06:55:23.833Z,8.21
2019-01-12T06:57:51.106Z,8.23
2019-01-12T07:00:19.544Z,8.13
2019-01-12T07:02:49.448Z,8.08
2019-01-12T07:05:16.877Z,8.10
2019-01-12T07:07:49.054Z,8.10
2019-01-12T07:10:16.439Z,8.32
2019-01-12T07:12:43.910Z,8.27
2019-01-12T07:15:11.824Z,8.24
2019-01-12T07:17:39.108Z,8.28
2019-01-12T07:20:09.862Z,8.30
2019-01-12T07:22:37.157Z,8.29
2019-01-12T07:25:04.725Z,8.26
2019-01-12T07:27:32.084Z,8.21
2019-01-12T07:29:59.393Z,8.32
2019-01-12T07:32:26.608Z,8.37
2019-01-12T07:34:54.323Z,8.44
2019-01-12T07:37:22.583Z,8.40
2019-01-12T07:39:49.804Z,8.38
2019-01-12T07:42:17.166Z,8.29
2019-01-12T07:44:44.499Z,8.28
2019-01-12T07:47:13.201Z,8.26
2019-01-12T07:49:41.892Z,8.50
2019-01-12T07:52:09.174Z,8.33
2019-01-12T07:54:36.563Z,8.38
2019-01-12T07:57:03.927Z,8.24
2019-01-12T07:59:31.143Z,8.34
2019-01-12T08:01:58.375Z,8.34
2019-01-12T08:04:28.041Z,8.47
2019-01-12T08:06:55.457Z,8.43
2019-01-12T08:09:22.674Z,8.49
2019-01-12T08:11:50.132Z,8.47
2019-01-12T08:14:17.481Z,8.38
2019-01-12T08:16:46.380Z,8.37
2019-01-12T08:19:13.864Z,8.40
2019-01-12T08:21:43.049Z,8.40
2019-01-12T08:24:11.285Z,8.33
2019-01-12T08:26:38.532Z,8.46
2019-01-12T08:29:05.849Z,8.49
2019-01-12T08:31:33.112Z,8.49
2019-01-12T08:34:00.338Z,8.45
2019-01-12T08:36:27.908Z,8.50
2019-01-12T08:38:55.147Z,8.49
2019-01-12T08:41:26.556Z,8.55
2019-01-12T08:43:53.915Z,8.46
2019-01-12T08:46:21.512Z,8.44
2019-01-12T08:48:48.963Z,8.41
2019-01-12T08:51:16.628Z,8.51
2019-01-12T08:53:43.856Z,8.55
2019-01-12T08:56:11.121Z,8.49
2019-01-12T08:58:38.391Z,8.46
2019-01-12T09:01:05.641Z,8.51
2019-01-12T09:03:32.988Z,8.46
2019-01-12T09:06:00.888Z,8.56
2019-01-12T09:08:28.330Z,8.48
2019-01-12T09:10:55.605Z,8.48
2019-01-12T09:13:22.836Z,8.51
2019-01-12T09:15:50.052Z,8.56
2019-01-12T09:18:17.318Z,8.56
2019-01-12T09:20:44.562Z,8.65
2019-01-12T09:23:11.838Z,8.64
2019-01-12T09:25:39.077Z,8.76
2019-01-12T09:28:06.308Z,8.73
2019-01-12T09:30:33.565Z,8.72
2019-01-12T09:33:00.807Z,8.77
2019-01-12T09:35:28.094Z,8.72
2019-01-12T09:37:55.325Z,8.63
2019-01-12T09:40:22.565Z,8.66
2019-01-12T09:42:50.229Z,8.64
2019-01-12T09:45:17.745Z,8.71
2019-01-12T09:47:47.957Z,8.76
2019-01-12T09:50:17.163Z,8.81
2019-01-12T09:52:44.376Z,8.75
2019-01-12T09:55:11.711Z,8.76
2019-01-12T09:57:39.228Z,8.78
2019-01-12T10:00:18.279Z,8.80
2019-01-12T10:02:45.520Z,8.69
2019-01-12T10:05:12.975Z,8.69
2019-01-12T10:07:42.180Z,8.68
2019-01-12T10:10:13.775Z,8.76
2019-01-12T10:12:44.030Z,8.73
2019-01-12T10:15:11.465Z,8.81
2019-01-12T10:17:38.751Z,8.86
2019-01-12T10:20:07.849Z,8.81
2019-01-12T10:22:35.116Z,8.73
2019-01-12T10:25:02.370Z,8.74
2019-01-12T10:27:29.597Z,8.74
2019-01-12T10:29:57.212Z,8.74
2019-01-12T10:32:24.409Z,8.69
2019-01-12T10:34:51.876Z,8.73
2019-01-12T10:37:19.234Z,8.81
2019-01-12T10:39:46.459Z,8.80
2019-01-12T10:42:13.683Z,8.76
2019-01-12T10:44:40.982Z,8.78
2019-01-12T10:47:08.247Z,8.83
2019-01-12T10:49:35.503Z,8.94
2019-01-12T10:52:02.918Z,8.94
2019-01-12T10:54:30.201Z,8.87
2019-01-12T10:56:57.449Z,8.87
2019-01-12T10:59:24.680Z,8.87
2019-01-12T11:01:51.893Z,8.89
2019-01-12T11:04:19.441Z,8.89
2019-01-12T11:06:46.656Z,8.95
2019-01-12T11:09:14.443Z,9.01
2019-01-12T11:11:41.881Z,9.07
2019-01-12T11:14:09.170Z,9.03
2019-01-12T11:16:47.209Z,9.07
2019-01-12T11:19:14.633Z,9.02
2019-01-12T11:21:41.881Z,9.10
2019-01-12T11:24:09.253Z,9.13
2019-01-12T11:26:36.468Z,9.11
2019-01-12T11:29:04.261Z,9.22
2019-01-12T11:31:32.539Z,9.22
2019-01-12T11:34:00.424Z,9.17
2019-01-12T11:36:27.749Z,9.24
2019-01-12T11:38:54.993Z,9.24
2019-01-12T11:41:22.253Z,9.33
2019-01-12T11:43:49.512Z,9.33
2019-01-12T11:46:17.126Z,9.36
2019-01-12T11:48:44.342Z,9.39
2019-01-12T11:51:13.111Z,9.36
2019-01-12T11:53:40.474Z,9.24
2019-01-12T11:56:07.698Z,9.30
2019-01-12T11:58:34.923Z,9.13
2019-01-12T12:01:02.600Z,9.13
2019-01-12T12:03:29.827Z,9.19
2019-01-12T12:05:57.141Z,8.97
2019-01-12T12:08:24.434Z,9.06
2019-01-12T12:10:51.679Z,9.07
2019-01-12T12:13:18.967Z,8.96
2019-01-12T12:15:46.193Z,9.03
2019-01-12T12:18:13.453Z,9.03
2019-01-12T12:20:40.723Z,8.93
2019-01-12T12:23:07.946Z,8.92
2019-01-12T12:25:35.194Z,8.95
2019-01-12T12:28:02.527Z,8.95
2019-01-12T12:30:30.532Z,8.96
2019-01-12T12:32:58.518Z,8.95
2019-01-12T12:35:25.777Z,9.06
2019-01-12T12:37:53.029Z,9.06
2019-01-12T12:40:21.082Z,8.97
2019-01-12T12:42:48.380Z,8.97
2019-01-12T12:45:17.940Z,9.02
2019-01-12T12:47:45.153Z,9.06
2019-01-12T12:50:13.540Z,9.09
2019-01-12T12:52:40.761Z,9.01
2019-01-12T12:55:08.659Z,9.02
2019-01-12T12:57:35.937Z,8.97
2019-01-12T13:00:05.810Z,9.04
2019-01-12T13:02:33.034Z,9.02
2019-01-12T13:05:00.320Z,8.92
2019-01-12T13:07:27.569Z,8.89
2019-01-12T13:09:54.846Z,9.01
2019-01-12T13:12:22.099Z,9.01
2019-01-12T13:14:49.517Z,9.04
2019-01-12T13:17:16.737Z,8.99
2019-01-12T13:19:44.036Z,8.99
2019-01-12T13:22:11.548Z,9.00
2019-01-12T13:24:38.846Z,9.00
2019-01-12T13:27:06.058Z,9.04
2019-01-12T13:29:33.314Z,8.88
2019-01-12T13:32:00.596Z,8.90
2019-01-12T13:34:27.817Z,8.94
2019-01-12T13:36:55.095Z,8.92
2019-01-12T13:39:22.348Z,9.02
2019-01-12T13:41:49.589Z,9.01
2019-01-12T13:44:17.117Z,8.94
2019-01-12T13:46:44.371Z,8.98
2019-01-12T13:49:11.654Z,8.92
2019-01-12T13:51:39.200Z,8.92
2019-01-12T13:54:06.487Z,8.92
2019-01-12T13:56:33.754Z,8.98
2019-01-12T13:59:00.968Z,8.96
2019-01-12T14:01:28.228Z,8.99
2019-01-12T14:03:55.504Z,8.98
2019-01-12T14:06:22.776Z,8.94
2019-01-12T14:08:50.132Z,8.98
2019-01-12T14:11:17.433Z,8.94
2019-01-12T14:13:44.724Z,9.02
2019-01-12T14:16:12.049Z,9.08
2019-01-12T14:18:39.393Z,9.00
2019-01-12T14:21:06.637Z,8.90
2019-01-12T14:23:34.460Z,8.90
2019-01-12T14:26:01.697Z,8.95
2019-01-12T14:28:30.595Z,9.02
2019-01-12T14:30:57.862Z,8.93
2019-01-12T14:33:25.139Z,8.81
2019-01-12T14:35:52.389Z,8.77
2019-01-12T14:38:19.617Z,8.72
2019-01-12T14:40:46.926Z,8.78
2019-01-12T14:43:14.246Z,8.82
2019-01-12T14:45:41.602Z,8.82
2019-01-12T14:48:09.264Z,8.76
2019-01-12T14:50:36.620Z,8.70
2019-01-12T14:53:03.938Z,8.68
2019-01-12T14:55:31.513Z,8.70
2019-01-12T14:58:02.580Z,8.81
2019-01-12T15:00:28.587Z,8.81
2019-01-12T15:02:55.866Z,8.79
2019-01-12T15:05:25.422Z,8.78
2019-01-12T15:07:52.613Z,8.75
2019-01-12T15:10:20.878Z,8.76
2019-01-12T15:12:48.499Z,8.72
2019-01-12T15:15:16.633Z,8.66
2019-01-12T15:17:44.210Z,8.69
2019-01-12T15:20:14.239Z,8.70
2019-01-12T15:22:41.503Z,8.70
2019-01-12T15:25:09.178Z,8.69
2019-01-12T15:27:37.185Z,8.77
2019-01-12T15:30:08.326Z,8.84
2019-01-12T15:32:35.568Z,8.84
2019-01-12T15:35:03.935Z,8.73
2019-01-12T15:37:31.275Z,8.74
2019-01-12T15:39:58.496Z,8.76
2019-01-12T15:42:25.731Z,8.66
2019-01-12T15:44:52.985Z,8.65
2019-01-12T15:47:20.258Z,8.59
2019-01-12T15:49:49.051Z,8.56
2019-01-12T15:52:18.541Z,8.66
2019-01-12T15:54:47.407Z,8.74
2019-01-12T15:57:14.882Z,8.73
2019-01-12T15:59:42.225Z,8.74
2019-01-12T16:02:09.597Z,8.57
2019-01-12T16:04:36.935Z,8.71
2019-01-12T16:07:04.168Z,8.71
2019-01-12T16:09:31.397Z,8.65
2019-01-12T16:11:58.678Z,8.68
2019-01-12T16:14:26.133Z,8.73
2019-01-12T16:16:53.464Z,8.69
2019-01-12T16:19:20.946Z,8.70
2019-01-12T16:21:50.526Z,8.69
2019-01-12T16:24:17.782Z,8.70
2019-01-12T16:26:45.082Z,8.74
2019-01-12T16:29:12.524Z,8.78
2019-01-12T16:31:39.960Z,8.76
2019-01-12T16:34:07.407Z,8.77
2019-01-12T16:36:34.803Z,8.64
2019-01-12T16:39:02.210Z,8.66
2019-01-12T16:41:29.441Z,8.76
2019-01-12T16:43:56.738Z,8.65
2019-01-12T16:46:24.000Z,8.65
2019-01-12T16:48:51.585Z,8.70
2019-01-12T16:51:21.697Z,8.70
2019-01-12T16:53:49.246Z,8.70
2019-01-12T16:56:16.530Z,8.80
2019-01-12T16:58:43.985Z,8.71
2019-01-12T17:01:11.251Z,8.76
2019-01-12T17:03:38.555Z,8.75
2019-01-12T17:06:05.804Z,8.76
2019-01-12T17:08:34.409Z,8.63
2019-01-12T17:11:04.021Z,8.61
2019-01-12T17:13:31.492Z,8.63
2019-01-12T17:15:58.714Z,8.51
2019-01-12T17:18:30.029Z,8.56
2019-01-12T17:20:57.703Z,8.50
2019-01-12T17:23:27.040Z,8.58
2019-01-12T17:25:54.524Z,8.55
2019-01-12T17:28:21.827Z,8.54
2019-01-12T17:30:49.382Z,8.57
2019-01-12T17:33:16.728Z,8.59
2019-01-12T17:35:44.089Z,8.57
2019-01-12T17:38:14.022Z,8.52
2019-01-12T17:40:41.381Z,8.58
2019-01-12T17:43:08.687Z,8.57
2019-01-12T17:45:36.039Z,8.49
2019-01-12T17:48:03.707Z,8.51
2019-01-12T17:50:30.968Z,8.44
2019-01-12T17:52:58.303Z,8.41
2019-01-12T17:55:26.781Z,8.43
2019-01-12T17:57:55.526Z,8.49
2019-01-12T18:00:30.075Z,8.44
2019-01-12T18:02:57.729Z,8.39
2019-01-12T18:05:31.565Z,8.41
2019-01-12T18:07:58.983Z,8.38
2019-01-12T18:10:26.331Z,8.40
2019-01-12T18:12:53.612Z,8.34
2019-01-12T18:15:20.855Z,8.32
2019-01-12T18:17:51.255Z,8.31
2019-01-12T18:20:18.673Z,8.27
2019-01-12T18:22:45.976Z,8.27
2019-01-12T18:25:13.960Z,8.41
2019-01-12T18:27:41.917Z,8.42
2019-01-12T18:30:13.821Z,8.35
2019-01-12T18:32:41.093Z,8.35
2019-01-12T18:35:08.544Z,8.35
2019-01-12T18:37:35.826Z,8.41
2019-01-12T18:40:04.221Z,8.39
2019-01-12T18:42:32.367Z,8.38
2019-01-12T18:44:59.619Z,8.38
2019-01-12T18:47:26.859Z,8.39
2019-01-12T18:49:54.145Z,8.49
2019-01-12T18:52:21.385Z,8.44
2019-01-12T18:54:48.706Z,8.42
2019-01-12T18:57:15.939Z,8.48
2019-01-12T18:59:43.321Z,8.56
2019-01-12T19:02:15.251Z,8.37
2019-01-12T19:04:42.618Z,8.37
2019-01-12T19:07:10.199Z,8.47
2019-01-12T19:09:38.372Z,8.56
2019-01-12T19:12:05.943Z,8.59
2019-01-12T19:14:33.257Z,8.68
2019-01-12T19:17:00.484Z,8.59
2019-01-12T19:19:27.707Z,8.55
2019-01-12T19:21:55.168Z,8.50
2019-01-12T19:24:22.684Z,8.57
2019-01-12T19:26:49.964Z,8.51
2019-01-12T19:29:17.247Z,8.49
2019-01-12T19:31:48.036Z,8.52
2019-01-12T19:34:15.325Z,8.58
2019-01-12T19:36:46.823Z,8.62
2019-01-12T19:39:15.811Z,8.59
2019-01-12T19:41:43.090Z,8.68
2019-01-12T19:44:11.220Z,8.68
2019-01-12T19:46:38.431Z,8.67
2019-01-12T19:49:08.251Z,8.65
2019-01-12T19:51:35.631Z,8.62
2019-01-12T19:54:02.875Z,8.64
2019-01-12T19:56:30.151Z,8.57
2019-01-12T19:58:57.503Z,8.62
2019-01-12T20:01:24.730Z,8.65
2019-01-12T20:03:52.010Z,8.65
2019-01-12T20:06:19.321Z,8.49
2019-01-12T20:08:46.520Z,8.52
2019-01-12T20:11:13.787Z,8.60
2019-01-12T20:13:41.199Z,8.57
2019-01-12T20:16:14.382Z,8.61
2019-01-12T20:18:48.691Z,8.58
2019-01-12T20:21:17.196Z,8.58
2019-01-12T20:23:44.460Z,8.64
2019-01-12T20:26:20.798Z,8.64
2019-01-12T20:28:57.115Z,8.69
2019-01-12T20:32:06.611Z,8.68
2019-01-12T20:34:41.412Z,8.73
2019-01-12T20:38:01.247Z,8.86
2019-01-12T20:41:05.611Z,8.78
2019-01-12T20:44:00.195Z,8.69
2019-01-12T20:46:57.697Z,8.70
2019-01-12T20:49:45.408Z,8.72
2019-01-12T20:52:50.173Z,8.76
2019-01-12T20:55:46.183Z,8.78
2019-01-12T20:58:57.129Z,8.82
2019-01-12T21:02:08.058Z,8.80
2019-01-12T21:05:00.909Z,8.70
2019-01-12T21:08:07.411Z,8.72
2019-01-12T21:11:13.975Z,8.67
2019-01-12T21:14:29.079Z,8.79
2019-01-12T21:17:00.579Z,8.91
2019-01-12T21:19:27.803Z,8.79
2019-01-12T21:21:55.057Z,8.86
2019-01-12T21:24:22.275Z,8.90
2019-01-12T21:26:49.556Z,8.87
2019-01-12T21:29:16.817Z,8.94
2019-01-12T21:31:44.052Z,8.88
2019-01-12T21:34:11.322Z,8.91
2019-01-12T21:36:38.561Z,8.89
2019-01-12T21:39:10.369Z,8.89
2019-01-12T21:41:37.849Z,8.89
2019-01-12T21:44:05.328Z,8.87
2019-01-12T21:46:32.757Z,8.85
2019-01-12T21:49:00.127Z,8.92
2019-01-12T21:51:27.481Z,8.88
2019-01-12T21:54:13.424Z,8.82
2019-01-12T21:56:43.626Z,8.78
2019-01-12T21:59:13.185Z,8.78
2019-01-12T22:01:47.630Z,8.80
2019-01-12T22:04:14.874Z,8.78
2019-01-12T22:06:42.162Z,8.77
2019-01-12T22:09:10.396Z,8.77
2019-01-12T22:11:44.634Z,8.86
2019-01-12T22:14:11.948Z,8.76
2019-01-12T22:16:39.175Z,8.76
2019-01-12T22:19:06.444Z,8.77
2019-01-12T22:21:33.718Z,8.77
2019-01-12T22:24:00.965Z,8.85
2019-01-12T22:26:28.230Z,8.87
2019-01-12T22:28:55.496Z,8.80
2019-01-12T22:31:22.740Z,8.70
2019-01-12T22:33:49.988Z,8.61
2019-01-12T22:36:17.672Z,8.55
2019-01-12T22:38:44.922Z,8.52
2019-01-12T22:41:12.215Z,8.57
2019-01-12T22:43:41.949Z,8.64
2019-01-12T22:46:09.225Z,8.51
2019-01-12T22:48:36.463Z,8.52
2019-01-12T22:51:03.841Z,8.51
2019-01-12T22:53:31.136Z,8.51
2019-01-12T22:55:58.380Z,8.48
2019-01-12T22:58:25.622Z,8.51
2019-01-12T23:01:13.987Z,8.43
2019-01-12T23:03:45.787Z,8.43
2019-01-12T23:06:13.242Z,8.45
2019-01-12T23:08:40.453Z,8.54
2019-01-12T23:11:07.716Z,8.47
2019-01-12T23:13:34.993Z,8.55
2019-01-12T23:16:02.515Z,8.50
2019-01-12T23:18:30.083Z,8.56
2019-01-12T23:20:57.688Z,8.52
2019-01-12T23:23:24.930Z,8.51
2019-01-12T23:25:52.152Z,8.49
2019-01-12T23:28:19.626Z,8.50
2019-01-12T23:30:46.875Z,8.50
2019-01-12T23:33:14.109Z,8.49
2019-01-12T23:35:41.389Z,8.49
2019-01-12T23:38:08.964Z,8.51
2019-01-12T23:40:36.190Z,8.55
2019-01-12T23:43:03.680Z,8.55
2019-01-12T23:45:30.905Z,8.57
2019-01-12T23:47:58.162Z,8.55
2019-01-12T23:50:25.397Z,8.47
2019-01-12T23:52:52.649Z,8.39
2019-01-12T23:55:19.906Z,8.39
2019-01-12T23:57:47.140Z,8.45
